createdAt,value
2022-10-17T00:00:24.662Z,15.78
2022-10-17T00:02:52.490Z,15.62
2022-10-17T00:05:20.224Z,15.52
2022-10-17T00:07:47.985Z,15.60
2022-10-17T00:10:15.704Z,15.65
2022-10-17T00:12:43.638Z,15.58
2022-10-17T00:15:16.351Z,15.54
2022-10-17T00:17:44.082Z,15.58
2022-10-17T00:20:13.091Z,15.98
2022-10-17T00:22:40.941Z,15.76
2022-10-17T00:25:09.529Z,15.85
2022-10-17T00:27:37.550Z,15.54
2022-10-17T00:30:06.545Z,15.79
2022-10-17T00:32:35.592Z,15.99
2022-10-17T00:35:03.688Z,15.82
2022-10-17T00:37:31.532Z,15.45
2022-10-17T00:39:59.393Z,15.50
2022-10-17T00:42:28.450Z,15.02
2022-10-17T00:45:13.892Z,14.79
2022-10-17T00:47:45.876Z,15.17
2022-10-17T00:50:15.716Z,15.87
2022-10-17T00:52:45.383Z,16.19
2022-10-17T00:55:18.009Z,15.73
2022-10-17T00:57:46.847Z,15.95
2022-10-17T01:00:15.811Z,16.31
2022-10-17T01:02:45.546Z,16.27
2022-10-17T01:05:14.158Z,16.40
2022-10-17T01:07:43.343Z,16.46
2022-10-17T01:10:13.309Z,16.41
2022-10-17T01:12:53.785Z,16.30
2022-10-17T01:15:33.749Z,16.50
2022-10-17T01:18:14.215Z,16.41
2022-10-17T01:21:13.778Z,16.25
2022-10-17T01:24:11.742Z,15.50
2022-10-17T01:26:54.202Z,15.08
2022-10-17T01:29:39.785Z,15.13
2022-10-17T01:32:17.381Z,15.70
2022-10-17T01:34:54.141Z,16.07
2022-10-17T01:37:29.434Z,16.02
2022-10-17T01:40:04.539Z,15.68
2022-10-17T01:42:37.463Z,15.82
2022-10-17T01:45:11.615Z,15.78
2022-10-17T01:47:42.716Z,14.87
2022-10-17T01:50:16.416Z,14.99
2022-10-17T01:52:47.475Z,14.66
2022-10-17T01:55:20.026Z,15.31
2022-10-17T01:57:52.050Z,14.87
2022-10-17T02:00:23.371Z,15.09
2022-10-17T02:02:57.639Z,15.21
2022-10-17T02:05:28.861Z,15.14
2022-10-17T02:07:56.594Z,14.83
2022-10-17T02:10:33.695Z,14.98
2022-10-17T02:13:06.005Z,15.04
2022-10-17T02:15:58.533Z,15.39
2022-10-17T02:18:48.112Z,15.82
2022-10-17T02:21:25.330Z,16.00
2022-10-17T02:24:01.701Z,15.82
2022-10-17T02:26:34.824Z,16.18
2022-10-17T02:29:09.530Z,16.37
2022-10-17T02:31:41.572Z,16.09
2022-10-17T02:34:16.208Z,16.30
2022-10-17T02:36:47.858Z,15.11
2022-10-17T02:39:17.403Z,15.65
2022-10-17T02:41:47.079Z,16.01
2022-10-17T02:44:15.482Z,15.82
2022-10-17T02:46:45.942Z,15.72
2022-10-17T02:49:21.999Z,15.93
2022-10-17T02:51:56.480Z,15.95
2022-10-17T02:54:34.708Z,16.16
2022-10-17T02:57:08.232Z,16.17
2022-10-17T02:59:38.249Z,16.46
2022-10-17T03:02:07.169Z,16.08
2022-10-17T03:04:36.495Z,15.96
2022-10-17T03:07:04.449Z,16.00
2022-10-17T03:09:32.095Z,15.84
2022-10-17T03:11:59.835Z,15.93
2022-10-17T03:14:27.474Z,16.05
2022-10-17T03:16:55.158Z,15.71
2022-10-17T03:19:22.829Z,15.41
2022-10-17T03:21:51.816Z,15.29
2022-10-17T03:24:19.514Z,15.43
2022-10-17T03:29:19.947Z,15.49
2022-10-17T03:31:47.705Z,15.40
2022-10-17T03:34:16.732Z,15.10
2022-10-17T03:36:44.555Z,15.42
2022-10-17T03:39:14.001Z,15.16
2022-10-17T03:41:41.727Z,15.24
2022-10-17T03:44:09.510Z,15.31
2022-10-17T03:46:37.293Z,15.21
2022-10-17T03:49:05.048Z,15.34
2022-10-17T03:51:34.499Z,15.39
2022-10-17T03:54:02.186Z,15.33
2022-10-17T03:56:31.195Z,15.39
2022-10-17T03:58:59.138Z,15.29
2022-10-17T04:01:26.932Z,15.06
2022-10-17T04:03:56.590Z,15.34
2022-10-17T04:06:24.780Z,15.30
2022-10-17T04:08:52.573Z,14.81
2022-10-17T04:11:22.063Z,15.03
2022-10-17T04:13:54.441Z,15.26
2022-10-17T04:16:22.813Z,15.05
2022-10-17T04:18:54.548Z,15.38
2022-10-17T04:21:23.473Z,15.03
2022-10-17T04:23:54.647Z,14.46
2022-10-17T04:26:22.511Z,14.84
2022-10-17T04:28:51.877Z,14.76
2022-10-17T04:31:20.059Z,14.69
2022-10-17T04:33:49.111Z,14.80
2022-10-17T04:36:18.428Z,14.66
2022-10-17T04:38:46.436Z,14.85
2022-10-17T04:41:15.658Z,14.97
2022-10-17T04:43:46.933Z,14.76
2022-10-17T04:46:19.409Z,14.91
2022-10-17T04:48:47.185Z,14.86
2022-10-17T04:51:16.604Z,14.36
2022-10-17T04:53:45.247Z,14.49
2022-10-17T04:56:15.733Z,14.39
2022-10-17T04:58:44.560Z,14.53
2022-10-17T05:01:15.137Z,14.54
2022-10-17T05:03:44.929Z,14.87
2022-10-17T05:06:14.683Z,14.47
2022-10-17T05:08:43.236Z,14.51
2022-10-17T05:11:17.819Z,14.47
2022-10-17T05:13:45.588Z,14.43
2022-10-17T05:16:13.349Z,14.75
2022-10-17T05:18:41.045Z,14.59
2022-10-17T05:21:10.469Z,14.62
2022-10-17T05:23:38.105Z,14.26
2022-10-17T05:26:06.011Z,14.91
2022-10-17T05:28:34.608Z,14.41
2022-10-17T05:31:04.349Z,14.33
2022-10-17T05:33:32.599Z,14.27
2022-10-17T05:36:01.030Z,14.38
2022-10-17T05:38:30.162Z,14.38
2022-10-17T05:40:59.099Z,14.22
2022-10-17T05:43:27.453Z,14.03
2022-10-17T05:45:55.709Z,14.35
2022-10-17T05:48:24.272Z,14.37
2022-10-17T05:50:59.111Z,14.10
2022-10-17T05:53:26.994Z,14.22
2022-10-17T05:56:01.482Z,14.14
2022-10-17T05:58:49.364Z,14.07
2022-10-17T06:01:17.826Z,14.27
2022-10-17T06:03:46.095Z,14.72
2022-10-17T06:06:15.611Z,14.47
2022-10-17T06:08:44.317Z,14.26
2022-10-17T06:11:14.387Z,14.09
2022-10-17T06:13:42.786Z,14.19
2022-10-17T06:16:10.704Z,14.46
2022-10-17T06:18:38.485Z,14.22
2022-10-17T06:21:08.320Z,14.27
2022-10-17T06:23:36.009Z,14.15
2022-10-17T06:26:06.101Z,14.87
2022-10-17T06:28:35.877Z,14.69
2022-10-17T06:31:06.374Z,14.90
2022-10-17T06:33:34.198Z,14.80
2022-10-17T06:36:02.287Z,15.00
2022-10-17T06:38:30.144Z,15.04
2022-10-17T06:41:04.960Z,15.91
2022-10-17T06:43:32.699Z,15.81
2022-10-17T06:46:01.962Z,15.96
2022-10-17T06:48:29.869Z,16.04
2022-10-17T06:51:00.173Z,16.75
2022-10-17T06:53:28.904Z,16.80
2022-10-17T06:56:01.334Z,17.18
2022-10-17T06:58:29.106Z,17.17
2022-10-17T07:01:01.785Z,17.58
2022-10-17T07:03:30.184Z,17.86
2022-10-17T07:05:58.524Z,18.12
2022-10-17T07:08:27.416Z,18.22
2022-10-17T07:10:55.709Z,18.41
2022-10-17T07:13:24.308Z,18.72
2022-10-17T07:15:52.130Z,18.76
2022-10-17T07:18:21.231Z,19.28
2022-10-17T07:20:54.448Z,19.67
2022-10-17T07:23:22.399Z,19.18
2022-10-17T07:25:50.146Z,18.98
2022-10-17T07:28:18.306Z,18.86
2022-10-17T07:30:49.310Z,18.80
2022-10-17T07:33:18.462Z,19.72
2022-10-17T07:35:47.526Z,19.39
2022-10-17T07:38:15.282Z,20.26
2022-10-17T07:40:43.037Z,21.26
2022-10-17T07:43:10.888Z,21.54
2022-10-17T07:45:38.550Z,23.54
2022-10-17T07:48:06.676Z,26.05
2022-10-17T07:50:34.439Z,28.41
2022-10-17T07:53:03.635Z,27.61
2022-10-17T07:55:31.459Z,25.87
2022-10-17T07:58:00.421Z,26.37
2022-10-17T08:00:28.208Z,25.19
2022-10-17T08:02:55.878Z,24.88
2022-10-17T08:05:23.687Z,24.74
2022-10-17T08:07:51.557Z,24.65
2022-10-17T08:10:21.391Z,26.56
2022-10-17T08:12:49.115Z,26.03
2022-10-17T08:15:16.915Z,26.26
2022-10-17T08:17:44.589Z,25.44
2022-10-17T08:20:13.095Z,24.82
2022-10-17T08:22:40.988Z,24.95
2022-10-17T08:25:09.617Z,24.13
2022-10-17T08:27:38.631Z,23.57
2022-10-17T08:30:07.290Z,23.16
2022-10-17T08:32:34.989Z,23.65
2022-10-17T08:35:02.702Z,24.31
2022-10-17T08:37:31.735Z,23.34
2022-10-17T08:39:59.904Z,23.24
2022-10-17T08:42:42.949Z,22.80
2022-10-17T08:45:21.938Z,22.52
2022-10-17T08:47:54.249Z,22.77
2022-10-17T08:50:30.934Z,23.31
2022-10-17T08:53:04.548Z,23.23
2022-10-17T08:55:38.845Z,22.86
2022-10-17T08:58:15.453Z,22.47
2022-10-17T09:00:50.279Z,22.73
2022-10-17T09:03:32.364Z,22.43
2022-10-17T09:06:12.537Z,22.91
2022-10-17T09:08:47.365Z,22.62
2022-10-17T09:11:26.335Z,22.67
2022-10-17T09:14:06.293Z,22.58
2022-10-17T09:17:00.812Z,22.56
2022-10-17T09:19:33.177Z,22.86
2022-10-17T09:22:04.215Z,23.02
2022-10-17T09:24:40.533Z,22.67
2022-10-17T09:27:21.140Z,23.17
2022-10-17T09:29:55.694Z,22.67
2022-10-17T09:32:26.955Z,22.67
2022-10-17T09:34:55.285Z,22.81
2022-10-17T09:37:30.774Z,23.04
2022-10-17T09:39:59.243Z,22.89
2022-10-17T09:42:28.635Z,22.76
2022-10-17T09:45:06.103Z,22.36
2022-10-17T09:47:41.469Z,22.85
2022-10-17T09:50:19.362Z,22.67
2022-10-17T09:52:49.381Z,22.98
2022-10-17T09:55:21.183Z,22.22
2022-10-17T09:57:55.854Z,22.71
2022-10-17T10:00:25.531Z,22.35
2022-10-17T10:03:10.375Z,22.54
2022-10-17T10:05:38.181Z,22.85
2022-10-17T10:08:13.600Z,22.18
2022-10-17T10:10:43.212Z,22.27
2022-10-17T10:13:21.198Z,22.46
2022-10-17T10:15:50.833Z,22.38
2022-10-17T10:18:35.747Z,22.55
2022-10-17T10:21:12.848Z,22.95
2022-10-17T10:23:42.057Z,23.22
2022-10-17T10:26:22.226Z,23.26
2022-10-17T10:28:57.707Z,23.52
2022-10-17T10:31:32.774Z,23.67
2022-10-17T10:34:14.890Z,23.63
2022-10-17T10:36:51.154Z,22.92
2022-10-17T10:39:30.559Z,23.26
2022-10-17T10:41:58.430Z,23.35
2022-10-17T10:44:29.484Z,22.84
2022-10-17T10:47:26.278Z,23.45
2022-10-17T10:50:18.516Z,23.71
2022-10-17T10:52:51.884Z,23.30
2022-10-17T10:55:26.424Z,23.39
2022-10-17T10:58:11.960Z,23.23
2022-10-17T11:00:40.395Z,22.92
2022-10-17T11:03:16.060Z,22.98
2022-10-17T11:05:49.250Z,22.82
2022-10-17T11:08:24.585Z,23.06
2022-10-17T11:11:18.171Z,23.26
2022-10-17T11:13:51.892Z,23.00
2022-10-17T11:16:30.561Z,22.68
2022-10-17T11:19:06.213Z,22.87
2022-10-17T11:21:44.715Z,22.72
2022-10-17T11:24:19.918Z,23.31
2022-10-17T11:26:54.607Z,23.86
2022-10-17T11:29:28.471Z,23.84
2022-10-17T11:32:00.924Z,23.68
2022-10-17T11:34:33.354Z,24.18
2022-10-17T11:37:06.637Z,23.70
2022-10-17T11:39:42.416Z,23.43
2022-10-17T11:42:13.901Z,23.65
2022-10-17T11:44:44.853Z,23.82
2022-10-17T11:47:22.550Z,23.39
2022-10-17T11:49:53.257Z,22.85
2022-10-17T11:52:55.458Z,22.72
2022-10-17T11:55:24.626Z,22.96
2022-10-17T12:01:15.176Z,22.39
2022-10-17T12:03:54.071Z,22.52
2022-10-17T12:06:37.755Z,22.40
2022-10-17T12:09:13.330Z,22.66
2022-10-17T12:11:53.930Z,22.67
2022-10-17T12:14:40.519Z,21.95
2022-10-17T12:17:34.811Z,22.25
2022-10-17T12:20:36.784Z,22.46
2022-10-17T12:23:24.157Z,22.44
2022-10-17T12:25:57.095Z,22.54
2022-10-17T12:28:31.766Z,22.87
2022-10-17T12:31:03.026Z,22.86
2022-10-17T12:33:36.889Z,22.95
2022-10-17T12:36:50.357Z,22.72
2022-10-17T12:39:54.177Z,22.69
2022-10-17T12:42:49.329Z,22.58
2022-10-17T12:45:48.109Z,22.74
2022-10-17T12:49:02.238Z,22.46
2022-10-17T12:51:38.152Z,22.34
2022-10-17T12:54:13.108Z,22.31
2022-10-17T12:56:42.871Z,22.32
2022-10-17T12:59:17.104Z,22.32
2022-10-17T13:01:47.892Z,22.17
2022-10-17T13:04:16.620Z,22.24
2022-10-17T13:06:48.085Z,21.95
2022-10-17T13:09:25.410Z,21.38
2022-10-17T13:11:54.614Z,21.24
2022-10-17T13:14:25.842Z,21.26
2022-10-17T13:16:55.975Z,21.41
2022-10-17T13:19:26.206Z,21.43
2022-10-17T13:21:56.213Z,21.80
2022-10-17T13:24:29.945Z,21.83
2022-10-17T13:26:58.577Z,21.97
2022-10-17T13:29:29.816Z,22.00
2022-10-17T13:34:29.465Z,21.98
2022-10-17T13:36:59.255Z,21.89
2022-10-17T13:39:44.740Z,21.40
2022-10-17T13:42:23.075Z,21.29
2022-10-17T13:44:52.850Z,20.53
2022-10-17T13:47:23.725Z,20.99
2022-10-17T13:49:55.178Z,21.10
2022-10-17T13:52:26.300Z,20.78
2022-10-17T13:54:54.814Z,20.33
2022-10-17T13:57:25.953Z,20.72
2022-10-17T13:59:57.609Z,21.11
2022-10-17T14:02:27.663Z,20.82
2022-10-17T14:05:19.523Z,20.65
2022-10-17T14:08:10.625Z,21.12
2022-10-17T14:10:41.905Z,20.66
2022-10-17T14:13:22.700Z,20.58
2022-10-17T14:15:55.611Z,20.53
2022-10-17T14:18:26.554Z,20.86
2022-10-17T14:21:32.177Z,20.99
2022-10-17T14:23:45.079Z,21.24
2022-10-17T14:26:16.457Z,20.49
2022-10-17T14:28:47.155Z,20.48
2022-10-17T14:31:32.480Z,20.97
2022-10-17T14:34:02.041Z,21.25
2022-10-17T14:36:36.891Z,21.36
2022-10-17T14:39:11.868Z,21.15
2022-10-17T14:41:45.490Z,20.89
2022-10-17T14:44:21.803Z,20.69
2022-10-17T14:46:59.296Z,20.51
2022-10-17T14:49:37.076Z,20.99
2022-10-17T14:52:39.858Z,20.80
2022-10-17T14:55:23.666Z,20.45
2022-10-17T14:57:51.447Z,21.09
2022-10-17T15:00:21.564Z,21.13
2022-10-17T15:02:52.286Z,21.19
2022-10-17T15:05:20.973Z,20.93
2022-10-17T15:07:48.706Z,20.97
2022-10-17T15:10:28.387Z,20.74
2022-10-17T15:12:59.281Z,21.10
2022-10-17T15:15:38.740Z,20.99
2022-10-17T15:18:08.873Z,20.96
2022-10-17T15:20:36.744Z,21.20
2022-10-17T15:23:04.831Z,20.94
2022-10-17T15:25:34.241Z,20.66
2022-10-17T15:28:02.020Z,20.89
2022-10-17T15:30:32.413Z,20.88
2022-10-17T15:33:00.635Z,20.96
2022-10-17T15:35:30.245Z,20.59
2022-10-17T15:37:58.211Z,20.67
2022-10-17T15:40:28.187Z,20.98
2022-10-17T15:42:56.230Z,21.15
2022-10-17T15:45:24.406Z,20.92
2022-10-17T15:47:54.778Z,20.99
2022-10-17T15:50:23.032Z,21.14
2022-10-17T15:52:52.369Z,20.86
2022-10-17T15:55:21.073Z,21.22
2022-10-17T15:57:49.872Z,20.72
2022-10-17T16:00:21.894Z,20.97
2022-10-17T16:02:50.679Z,20.30
2022-10-17T16:05:23.279Z,20.40
2022-10-17T16:07:53.671Z,20.50
2022-10-17T16:10:23.139Z,20.40
2022-10-17T16:12:51.175Z,20.60
2022-10-17T16:15:22.528Z,20.53
2022-10-17T16:17:50.784Z,20.74
2022-10-17T16:20:19.719Z,20.56
2022-10-17T16:22:48.384Z,20.63
2022-10-17T16:25:23.100Z,20.56
2022-10-17T16:27:53.117Z,20.96
2022-10-17T16:32:56.851Z,21.03
2022-10-17T16:35:27.209Z,20.85
2022-10-17T16:37:56.358Z,20.48
2022-10-17T16:40:25.703Z,20.83
2022-10-17T16:42:53.572Z,20.86
2022-10-17T16:45:23.072Z,20.93
2022-10-17T16:47:52.999Z,20.56
2022-10-17T16:50:20.960Z,20.79
2022-10-17T16:52:48.718Z,20.57
2022-10-17T16:55:18.783Z,20.92
2022-10-17T16:57:49.488Z,20.72
2022-10-17T17:00:18.349Z,20.58
2022-10-17T17:02:48.843Z,20.76
2022-10-17T17:05:17.060Z,20.84
2022-10-17T17:07:44.792Z,20.72
2022-10-17T17:10:12.694Z,20.33
2022-10-17T17:12:40.515Z,20.40
2022-10-17T17:15:10.094Z,20.66
2022-10-17T17:17:49.548Z,20.69
2022-10-17T17:20:18.362Z,20.47
2022-10-17T17:22:46.161Z,20.29
2022-10-17T17:25:14.238Z,20.42
2022-10-17T17:27:42.182Z,20.55
2022-10-17T17:30:12.716Z,20.70
2022-10-17T17:32:40.741Z,20.47
2022-10-17T17:35:09.480Z,20.37
2022-10-17T17:37:37.215Z,20.25
2022-10-17T17:40:06.533Z,20.45
2022-10-17T17:42:34.307Z,20.64
2022-10-17T17:45:02.084Z,20.50
2022-10-17T17:47:31.533Z,20.60
2022-10-17T17:49:59.462Z,20.63
2022-10-17T17:52:27.498Z,20.52
2022-10-17T17:54:55.393Z,20.33
2022-10-17T17:57:23.320Z,20.23
2022-10-17T17:59:52.290Z,20.38
2022-10-17T18:02:20.074Z,20.52
2022-10-17T18:04:49.732Z,20.54
2022-10-17T18:07:17.554Z,20.23
2022-10-17T18:09:45.332Z,20.60
2022-10-17T18:12:13.076Z,20.54
2022-10-17T18:14:40.853Z,20.38
2022-10-17T18:17:08.696Z,20.64
2022-10-17T18:19:36.600Z,20.61
2022-10-17T18:22:05.775Z,20.38
2022-10-17T18:24:33.767Z,20.27
2022-10-17T18:27:01.602Z,20.44
2022-10-17T18:29:29.480Z,20.19
2022-10-17T18:31:57.239Z,20.33
2022-10-17T18:34:24.971Z,20.53
2022-10-17T18:36:53.739Z,20.36
2022-10-17T18:39:23.135Z,20.64
2022-10-17T18:41:50.850Z,20.60
2022-10-17T18:44:18.530Z,20.32
2022-10-17T18:46:46.919Z,20.56
2022-10-17T18:49:18.841Z,20.14
2022-10-17T18:51:47.481Z,20.27
2022-10-17T18:54:20.446Z,20.01
2022-10-17T18:56:51.055Z,20.02
2022-10-17T18:59:19.294Z,20.11
2022-10-17T19:01:47.714Z,20.18
2022-10-17T19:04:15.740Z,20.37
2022-10-17T19:06:44.097Z,20.62
2022-10-17T19:09:13.492Z,20.62
2022-10-17T19:11:42.227Z,20.62
2022-10-17T19:14:13.845Z,20.90
2022-10-17T19:16:43.124Z,20.76
2022-10-17T19:19:14.244Z,20.92
2022-10-17T19:21:42.653Z,20.70
2022-10-17T19:24:14.685Z,20.79
2022-10-17T19:26:43.730Z,20.59
2022-10-17T19:29:14.978Z,20.55
2022-10-17T19:31:43.589Z,20.92
2022-10-17T19:34:12.096Z,20.87
2022-10-17T19:36:40.720Z,20.59
2022-10-17T19:39:14.114Z,20.64
2022-10-17T19:41:41.884Z,20.56
2022-10-17T19:44:10.060Z,20.55
2022-10-17T19:46:39.559Z,20.36
2022-10-17T19:49:07.853Z,20.50
2022-10-17T19:51:35.619Z,20.59
2022-10-17T19:54:03.415Z,20.57
2022-10-17T19:56:37.576Z,20.45
2022-10-17T19:59:06.347Z,20.34
2022-10-17T20:01:36.229Z,20.38
2022-10-17T20:04:06.322Z,20.43
2022-10-17T20:06:34.693Z,20.50
2022-10-17T20:09:02.580Z,20.45
2022-10-17T20:11:30.808Z,20.43
2022-10-17T20:13:58.715Z,20.19
2022-10-17T20:16:28.871Z,20.16
2022-10-17T20:18:58.392Z,19.98
2022-10-17T20:21:31.561Z,19.96
2022-10-17T20:24:01.080Z,20.07
2022-10-17T20:26:38.596Z,20.02
2022-10-17T20:29:13.296Z,19.77
2022-10-17T20:31:42.614Z,19.81
2022-10-17T20:34:12.981Z,19.83
2022-10-17T20:36:42.677Z,19.49
2022-10-17T20:39:12.399Z,19.70
2022-10-17T20:41:40.152Z,19.56
2022-10-17T20:44:08.240Z,19.69
2022-10-17T20:46:37.818Z,19.87
2022-10-17T20:49:08.749Z,19.72
2022-10-17T20:51:37.116Z,19.56
2022-10-17T20:54:06.331Z,19.71
2022-10-17T20:56:35.461Z,19.73
2022-10-17T20:59:05.626Z,19.63
2022-10-17T21:01:35.245Z,19.77
2022-10-17T21:04:26.958Z,19.66
2022-10-17T21:06:52.179Z,19.37
2022-10-17T21:09:22.130Z,19.37
2022-10-17T21:11:54.289Z,19.59
2022-10-17T21:14:23.347Z,19.58
2022-10-17T21:16:52.198Z,19.63
2022-10-17T21:19:21.683Z,19.11
2022-10-17T21:21:49.417Z,19.26
2022-10-17T21:24:20.670Z,19.41
2022-10-17T21:26:55.614Z,19.64
2022-10-17T21:29:24.582Z,19.35
2022-10-17T21:31:52.682Z,19.33
2022-10-17T21:34:22.063Z,19.67
2022-10-17T21:36:50.030Z,19.09
2022-10-17T21:39:18.379Z,19.71
2022-10-17T21:41:46.460Z,19.60
2022-10-17T21:44:17.651Z,19.56
2022-10-17T21:46:45.824Z,19.73
2022-10-17T21:49:15.413Z,19.52
2022-10-17T21:51:44.627Z,19.50
2022-10-17T21:54:12.873Z,19.43
2022-10-17T21:56:41.014Z,19.49
2022-10-17T21:59:09.145Z,19.53
2022-10-17T22:01:40.336Z,19.50
2022-10-17T22:04:11.435Z,19.54
2022-10-17T22:06:41.296Z,19.66
2022-10-17T22:09:11.223Z,19.61
2022-10-17T22:11:39.500Z,19.48
2022-10-17T22:14:08.952Z,19.71
2022-10-17T22:16:40.137Z,19.70
2022-10-17T22:19:09.673Z,19.68
2022-10-17T22:21:38.144Z,19.62
2022-10-17T22:24:08.152Z,19.45
2022-10-17T22:26:37.507Z,19.37
2022-10-17T22:29:06.003Z,19.47
2022-10-17T22:31:34.233Z,19.58
2022-10-17T22:34:05.254Z,19.31
2022-10-17T22:36:33.926Z,18.92
2022-10-17T22:39:01.673Z,19.52
2022-10-17T22:41:29.573Z,19.65
2022-10-17T22:43:57.313Z,19.30
2022-10-17T22:46:25.289Z,19.30
2022-10-17T22:48:52.987Z,19.37
2022-10-17T22:53:54.805Z,19.35
2022-10-17T22:56:23.600Z,19.27
2022-10-17T22:58:52.052Z,19.27
2022-10-17T23:01:22.376Z,19.25
2022-10-17T23:03:50.857Z,19.25
2022-10-17T23:06:18.847Z,19.30
2022-10-17T23:08:48.267Z,19.34
2022-10-17T23:11:16.136Z,19.33
2022-10-17T23:13:44.124Z,19.23
2022-10-17T23:16:11.902Z,19.30
2022-10-17T23:18:40.349Z,19.12
2022-10-17T23:21:08.924Z,19.27
2022-10-17T23:23:37.448Z,19.39
2022-10-17T23:26:08.627Z,19.35
2022-10-17T23:28:36.448Z,18.96
2022-10-17T23:31:12.375Z,19.15
2022-10-17T23:33:41.361Z,19.30
2022-10-17T23:36:10.262Z,19.24
2022-10-17T23:38:38.052Z,19.09
2022-10-17T23:41:07.656Z,19.00
2022-10-17T23:43:35.944Z,18.89
2022-10-17T23:46:04.433Z,18.98
2022-10-17T23:48:32.190Z,18.93
2022-10-17T23:51:00.022Z,18.98
2022-10-17T23:53:28.039Z,19.01
2022-10-17T23:55:55.740Z,18.72
2022-10-17T23:58:24.805Z,18.93
